createdAt,value
2018-01-23T00:00:04.211Z,31.80
2018-01-23T00:01:04.269Z,38.00
2018-01-23T00:02:04.161Z,36.50
2018-01-23T00:03:04.292Z,39.20
2018-01-23T00:04:04.167Z,37.70
2018-01-23T00:05:06.343Z,35.50
2018-01-23T00:06:04.180Z,36.30
2018-01-23T00:07:04.187Z,30.90
2018-01-23T00:08:04.190Z,30.10
2018-01-23T00:09:04.330Z,38.10
2018-01-23T00:10:04.212Z,39.20
2018-01-23T00:11:04.343Z,38.90
2018-01-23T00:12:04.227Z,36.20
2018-01-23T00:13:04.250Z,33.10
2018-01-23T00:14:04.191Z,39.60
2018-01-23T00:15:04.368Z,33.40
2018-01-23T00:16:04.200Z,40.80
2018-01-23T00:17:05.311Z,42.50
2018-01-23T00:18:04.216Z,29.10
2018-01-23T00:19:04.400Z,32.60
2018-01-23T00:20:04.215Z,32.70
2018-01-23T00:21:05.329Z,39.50
2018-01-23T00:22:04.221Z,33.00
2018-01-23T00:23:04.427Z,29.90
2018-01-23T00:24:04.231Z,36.60
2018-01-23T00:25:04.339Z,34.80
2018-01-23T00:26:04.232Z,29.10
2018-01-23T00:27:04.354Z,33.30
2018-01-23T00:28:04.236Z,32.90
2018-01-23T00:29:04.361Z,35.10
2018-01-23T00:30:04.243Z,41.50
2018-01-23T00:31:04.380Z,36.00
2018-01-23T00:32:04.250Z,33.00
2018-01-23T00:33:05.418Z,30.90
2018-01-23T00:34:04.260Z,28.20
2018-01-23T00:35:04.414Z,33.30
2018-01-23T00:36:04.279Z,31.60
2018-01-23T00:37:04.266Z,32.60
2018-01-23T00:38:04.440Z,28.60
2018-01-23T00:39:04.279Z,32.10
2018-01-23T00:40:04.435Z,33.10
2018-01-23T00:41:04.283Z,32.20
2018-01-23T00:42:05.481Z,33.40
2018-01-23T00:43:04.283Z,32.50
2018-01-23T00:44:05.493Z,33.20
2018-01-23T00:45:04.297Z,36.90
2018-01-23T00:46:04.481Z,32.60
2018-01-23T00:47:04.294Z,39.00
2018-01-23T00:48:06.446Z,28.30
2018-01-23T00:49:04.310Z,35.70
2018-01-23T00:50:04.495Z,31.80
2018-01-23T00:51:04.311Z,31.20
2018-01-23T00:52:05.427Z,33.80
2018-01-23T00:53:04.321Z,33.90
2018-01-23T00:54:04.519Z,32.30
2018-01-23T00:55:04.375Z,28.30
2018-01-23T00:56:04.327Z,34.30
2018-01-23T00:57:04.436Z,39.20
2018-01-23T00:58:04.355Z,35.00
2018-01-23T00:59:04.457Z,32.90
2018-01-23T01:00:04.342Z,32.90
2018-01-23T01:01:04.355Z,38.40
2018-01-23T01:02:04.362Z,33.90
2018-01-23T01:03:04.460Z,39.50
2018-01-23T01:04:04.371Z,33.80
2018-01-23T01:05:04.478Z,39.30
2018-01-23T01:06:04.366Z,32.80
2018-01-23T01:07:04.487Z,34.20
2018-01-23T01:08:04.366Z,35.00
2018-01-23T01:09:04.396Z,39.30
2018-01-23T01:10:04.382Z,34.20
2018-01-23T01:11:04.448Z,40.50
2018-01-23T01:12:04.395Z,35.40
2018-01-23T01:13:04.529Z,34.60
2018-01-23T01:14:04.395Z,32.20
2018-01-23T01:15:04.539Z,32.90
2018-01-23T01:16:04.401Z,32.70
2018-01-23T01:17:04.445Z,34.20
2018-01-23T01:18:04.409Z,33.00
2018-01-23T01:19:04.568Z,42.30
2018-01-23T01:20:04.417Z,39.90
2018-01-23T01:21:04.511Z,32.50
2018-01-23T01:22:04.414Z,28.80
2018-01-23T01:23:04.591Z,32.20
2018-01-23T01:24:04.431Z,36.50
2018-01-23T01:25:04.607Z,34.40
2018-01-23T01:26:04.449Z,38.30
2018-01-23T01:27:04.518Z,30.20
2018-01-23T01:28:04.428Z,30.90
2018-01-23T01:29:04.527Z,34.30
2018-01-23T01:30:04.439Z,29.50
2018-01-23T01:31:04.541Z,36.60
2018-01-23T01:32:04.452Z,33.20
2018-01-23T01:33:04.565Z,37.20
2018-01-23T01:34:04.480Z,36.90
2018-01-23T01:35:04.572Z,32.20
2018-01-23T01:36:04.458Z,35.90
2018-01-23T01:37:04.603Z,36.50
2018-01-23T01:38:04.527Z,30.70
2018-01-23T01:39:04.598Z,36.50
2018-01-23T01:40:04.525Z,35.90
2018-01-23T01:41:04.614Z,34.30
2018-01-23T01:42:04.503Z,31.30
2018-01-23T01:43:04.653Z,37.30
2018-01-23T01:44:04.481Z,30.90
2018-01-23T01:45:04.639Z,34.20
2018-01-23T01:46:04.514Z,38.40
2018-01-23T01:47:04.650Z,34.20
2018-01-23T01:48:04.495Z,33.40
2018-01-23T01:49:04.670Z,36.20
2018-01-23T01:50:04.498Z,35.10
2018-01-23T01:51:04.680Z,36.00
2018-01-23T01:52:04.511Z,45.10
2018-01-23T01:53:04.693Z,34.90
2018-01-23T01:54:04.529Z,46.50
2018-01-23T01:55:04.709Z,36.80
2018-01-23T01:56:04.540Z,36.30
2018-01-23T01:57:04.717Z,40.10
2018-01-23T01:58:04.528Z,38.70
2018-01-23T01:59:04.642Z,38.60
2018-01-23T02:00:04.549Z,37.30
2018-01-23T02:01:04.648Z,29.50
2018-01-23T02:02:04.532Z,34.50
2018-01-23T02:03:04.657Z,35.40
2018-01-23T02:04:04.546Z,34.90
2018-01-23T02:05:06.739Z,42.40
2018-01-23T02:06:04.547Z,41.00
2018-01-23T02:07:04.698Z,37.30
2018-01-23T02:08:04.567Z,43.60
2018-01-23T02:09:04.695Z,36.40
2018-01-23T02:10:04.576Z,41.50
2018-01-23T02:11:04.715Z,34.70
2018-01-23T02:12:04.576Z,39.20
2018-01-23T02:13:04.736Z,35.30
2018-01-23T02:14:04.615Z,37.20
2018-01-23T02:15:04.748Z,36.90
2018-01-23T02:16:04.593Z,38.10
2018-01-23T02:17:04.759Z,38.20
2018-01-23T02:18:04.588Z,37.40
2018-01-23T02:19:04.773Z,34.90
2018-01-23T02:20:04.609Z,38.50
2018-01-23T02:21:04.785Z,34.50
2018-01-23T02:22:04.614Z,35.70
2018-01-23T02:23:04.807Z,41.10
2018-01-23T02:24:04.607Z,40.10
2018-01-23T02:25:04.821Z,35.80
2018-01-23T02:26:04.616Z,34.20
2018-01-23T02:27:04.824Z,37.30
2018-01-23T02:28:04.656Z,39.80
2018-01-23T02:29:04.838Z,38.30
2018-01-23T02:30:04.623Z,37.60
2018-01-23T02:31:04.752Z,35.90
2018-01-23T02:32:04.637Z,37.20
2018-01-23T02:33:05.788Z,33.60
2018-01-23T02:34:04.644Z,37.00
2018-01-23T02:35:04.788Z,38.10
2018-01-23T02:36:04.654Z,39.70
2018-01-23T02:37:04.794Z,39.90
2018-01-23T02:38:04.662Z,38.60
2018-01-23T02:39:04.669Z,38.20
2018-01-23T02:40:04.818Z,34.00
2018-01-23T02:41:04.680Z,36.20
2018-01-23T02:42:04.679Z,38.10
2018-01-23T02:43:04.832Z,35.40
2018-01-23T02:44:04.703Z,44.50
2018-01-23T02:45:04.791Z,40.50
2018-01-23T02:46:04.692Z,39.10
2018-01-23T02:47:04.812Z,33.70
2018-01-23T02:48:04.693Z,34.80
2018-01-23T02:49:10.560Z,32.80
2018-01-23T02:50:04.717Z,40.60
2018-01-23T02:51:04.841Z,40.80
2018-01-23T02:52:04.704Z,35.70
2018-01-23T02:53:04.854Z,40.10
2018-01-23T02:54:04.709Z,36.10
2018-01-23T02:55:04.849Z,41.30
2018-01-23T02:56:04.717Z,36.80
2018-01-23T02:57:04.857Z,35.30
2018-01-23T02:58:04.720Z,41.80
2018-01-23T02:59:04.861Z,41.20
2018-01-23T03:00:04.726Z,32.70
2018-01-23T03:01:04.876Z,38.10
2018-01-23T03:02:04.738Z,38.00
2018-01-23T03:03:04.803Z,33.00
2018-01-23T03:04:04.738Z,36.70
2018-01-23T03:05:04.811Z,36.50
2018-01-23T03:06:04.743Z,40.20
2018-01-23T03:07:04.831Z,39.30
2018-01-23T03:08:04.754Z,41.00
2018-01-23T03:09:04.853Z,45.40
2018-01-23T03:10:04.766Z,35.60
2018-01-23T03:11:05.889Z,36.00
2018-01-23T03:12:04.768Z,35.80
2018-01-23T03:13:04.877Z,39.10
2018-01-23T03:14:04.782Z,35.50
2018-01-23T03:15:04.985Z,40.90
2018-01-23T03:16:04.784Z,34.10
2018-01-23T03:17:04.906Z,44.10
2018-01-23T03:18:04.800Z,40.10
2018-01-23T03:19:04.920Z,43.40
2018-01-23T03:20:04.797Z,42.40
2018-01-23T03:21:04.872Z,36.40
2018-01-23T03:22:04.810Z,38.80
2018-01-23T03:23:04.838Z,34.90
2018-01-23T03:24:04.809Z,38.80
2018-01-23T03:25:04.968Z,41.40
2018-01-23T03:26:04.811Z,31.60
2018-01-23T03:27:04.971Z,38.70
2018-01-23T03:28:04.830Z,35.50
2018-01-23T03:29:04.981Z,37.60
2018-01-23T03:30:04.823Z,39.30
2018-01-23T03:31:04.995Z,37.40
2018-01-23T03:32:04.835Z,35.50
2018-01-23T03:33:04.860Z,33.90
2018-01-23T03:34:04.827Z,39.60
2018-01-23T03:35:04.884Z,40.00
2018-01-23T03:36:04.841Z,38.30
2018-01-23T03:37:04.886Z,44.10
2018-01-23T03:38:04.851Z,38.70
2018-01-23T03:39:04.898Z,36.50
2018-01-23T03:40:04.854Z,33.90
2018-01-23T03:41:04.860Z,41.30
2018-01-23T03:42:04.862Z,32.50
2018-01-23T03:43:04.925Z,35.30
2018-01-23T03:44:04.901Z,32.20
2018-01-23T03:45:04.939Z,34.00
2018-01-23T03:46:04.875Z,34.10
2018-01-23T03:47:04.911Z,40.50
2018-01-23T03:48:04.960Z,35.70
2018-01-23T03:49:04.909Z,34.10
2018-01-23T03:50:04.971Z,37.10
2018-01-23T03:51:04.894Z,35.70
2018-01-23T03:52:04.992Z,32.10
2018-01-23T03:53:04.893Z,37.00
2018-01-23T03:54:05.015Z,38.50
2018-01-23T03:55:04.906Z,33.40
2018-01-23T03:56:05.011Z,42.50
2018-01-23T03:57:04.916Z,36.40
2018-01-23T03:58:05.028Z,36.90
2018-01-23T03:59:04.923Z,35.40
2018-01-23T04:00:05.069Z,37.70
2018-01-23T04:01:04.922Z,39.40
2018-01-23T04:02:04.953Z,38.10
2018-01-23T04:03:04.924Z,38.10
2018-01-23T04:04:05.069Z,40.50
2018-01-23T04:05:04.934Z,37.90
2018-01-23T04:06:04.978Z,31.40
2018-01-23T04:07:04.936Z,34.40
2018-01-23T04:08:04.967Z,29.30
2018-01-23T04:09:04.948Z,35.20
2018-01-23T04:10:05.039Z,29.70
2018-01-23T04:11:05.012Z,40.00
2018-01-23T04:12:05.029Z,38.00
2018-01-23T04:13:04.983Z,40.20
2018-01-23T04:14:05.034Z,33.50
2018-01-23T04:15:04.970Z,34.70
2018-01-23T04:16:05.047Z,38.10
2018-01-23T04:17:04.979Z,31.80
2018-01-23T04:18:05.118Z,34.20
2018-01-23T04:19:04.990Z,31.30
2018-01-23T04:20:05.120Z,37.00
2018-01-23T04:21:04.986Z,33.60
2018-01-23T04:22:05.092Z,38.10
2018-01-23T04:23:04.989Z,35.00
2018-01-23T04:24:05.096Z,37.40
2018-01-23T04:25:05.018Z,37.20
2018-01-23T04:26:05.116Z,32.90
2018-01-23T04:27:05.005Z,33.10
2018-01-23T04:28:05.122Z,37.00
2018-01-23T04:29:05.013Z,32.10
2018-01-23T04:30:05.146Z,35.10
2018-01-23T04:31:05.016Z,31.30
2018-01-23T04:32:05.135Z,31.50
2018-01-23T04:33:05.028Z,40.00
2018-01-23T04:34:05.162Z,38.30
2018-01-23T04:35:05.068Z,38.10
2018-01-23T04:36:06.098Z,36.40
2018-01-23T04:37:05.030Z,44.60
2018-01-23T04:38:05.086Z,41.00
2018-01-23T04:39:05.040Z,43.40
2018-01-23T04:40:05.105Z,40.90
2018-01-23T04:41:05.047Z,39.80
2018-01-23T04:42:05.120Z,35.90
2018-01-23T04:43:05.062Z,39.30
2018-01-23T04:44:05.137Z,41.50
2018-01-23T04:45:05.063Z,36.80
2018-01-23T04:46:05.143Z,36.90
2018-01-23T04:47:05.089Z,34.00
2018-01-23T04:48:05.158Z,32.20
2018-01-23T04:49:05.104Z,37.30
2018-01-23T04:50:05.099Z,36.90
2018-01-23T04:51:05.223Z,38.90
2018-01-23T04:52:05.120Z,38.40
2018-01-23T04:53:05.092Z,40.50
2018-01-23T04:54:05.198Z,35.40
2018-01-23T04:55:05.096Z,44.60
2018-01-23T04:56:05.212Z,38.40
2018-01-23T04:57:05.106Z,40.00
2018-01-23T04:58:05.253Z,41.10
2018-01-23T04:59:05.113Z,37.00
2018-01-23T05:00:05.241Z,42.70
2018-01-23T05:01:05.111Z,42.50
2018-01-23T05:02:05.255Z,43.00
2018-01-23T05:03:05.129Z,42.80
2018-01-23T05:04:05.148Z,34.10
2018-01-23T05:05:05.273Z,42.20
2018-01-23T05:06:05.128Z,42.90
2018-01-23T05:07:05.185Z,43.00
2018-01-23T05:08:05.145Z,42.70
2018-01-23T05:09:05.222Z,46.30
2018-01-23T05:10:05.141Z,38.90
2018-01-23T05:11:05.223Z,40.50
2018-01-23T05:12:05.189Z,45.10
2018-01-23T05:13:05.239Z,40.00
2018-01-23T05:14:05.157Z,45.80
2018-01-23T05:15:05.265Z,51.30
2018-01-23T05:16:05.164Z,46.10
2018-01-23T05:17:05.263Z,46.70
2018-01-23T05:18:05.174Z,48.00
2018-01-23T05:19:05.284Z,51.40
2018-01-23T05:20:05.174Z,46.60
2018-01-23T05:21:05.290Z,51.10
2018-01-23T05:22:05.187Z,48.20
2018-01-23T05:23:05.316Z,49.30
2018-01-23T05:24:05.199Z,52.30
2018-01-23T05:25:05.308Z,53.00
2018-01-23T05:26:05.191Z,45.40
2018-01-23T05:27:05.340Z,52.40
2018-01-23T05:28:05.203Z,48.70
2018-01-23T05:29:05.343Z,45.70
2018-01-23T05:30:05.213Z,51.60
2018-01-23T05:31:05.365Z,53.20
2018-01-23T05:32:05.224Z,55.30
2018-01-23T05:33:05.365Z,53.00
2018-01-23T05:34:05.261Z,51.30
2018-01-23T05:35:05.382Z,60.20
2018-01-23T05:36:05.245Z,59.10
2018-01-23T05:37:05.409Z,60.20
2018-01-23T05:38:05.234Z,58.90
2018-01-23T05:39:05.422Z,47.60
2018-01-23T05:40:05.238Z,56.80
2018-01-23T05:41:05.325Z,54.60
2018-01-23T05:42:05.262Z,58.00
2018-01-23T05:43:05.333Z,58.30
2018-01-23T05:44:05.258Z,57.10
2018-01-23T05:45:05.346Z,55.20
2018-01-23T05:46:05.271Z,57.60
2018-01-23T05:47:05.364Z,53.30
2018-01-23T05:48:05.265Z,62.00
2018-01-23T05:49:05.376Z,64.00
2018-01-23T05:50:05.286Z,58.20
2018-01-23T05:51:05.382Z,57.80
2018-01-23T05:52:05.299Z,55.60
2018-01-23T05:53:05.404Z,56.10
2018-01-23T05:54:05.301Z,53.60
2018-01-23T05:55:05.416Z,56.10
2018-01-23T05:56:05.415Z,58.10
2018-01-23T05:57:05.298Z,62.60
2018-01-23T05:58:05.436Z,59.10
2018-01-23T05:59:05.306Z,63.60
2018-01-23T06:00:05.449Z,60.70
2018-01-23T06:01:05.306Z,56.30
2018-01-23T06:02:05.357Z,57.10
2018-01-23T06:03:05.362Z,63.90
2018-01-23T06:04:05.471Z,59.50
2018-01-23T06:05:05.328Z,64.70
2018-01-23T06:06:05.497Z,65.10
2018-01-23T06:07:05.357Z,68.80
2018-01-23T06:08:05.502Z,65.20
2018-01-23T06:09:05.369Z,65.90
2018-01-23T06:10:05.519Z,61.20
2018-01-23T06:11:05.368Z,63.60
2018-01-23T06:12:05.423Z,63.20
2018-01-23T06:13:05.351Z,58.60
2018-01-23T06:14:05.349Z,56.80
2018-01-23T06:15:05.479Z,64.20
2018-01-23T06:16:05.369Z,61.80
2018-01-23T06:17:05.462Z,65.90
2018-01-23T06:18:05.368Z,61.80
2018-01-23T06:19:05.473Z,59.80
2018-01-23T06:20:05.373Z,61.60
2018-01-23T06:21:05.485Z,56.60
2018-01-23T06:22:05.389Z,57.50
2018-01-23T06:23:05.498Z,52.40
2018-01-23T06:24:05.924Z,56.10
2018-01-23T06:25:05.522Z,59.90
2018-01-23T06:26:05.381Z,60.80
2018-01-23T06:27:05.429Z,52.00
2018-01-23T06:28:05.398Z,59.90
2018-01-23T06:29:05.543Z,62.10
2018-01-23T06:30:05.420Z,52.40
2018-01-23T06:31:05.564Z,53.30
2018-01-23T06:32:05.421Z,52.70
2018-01-23T06:33:05.425Z,50.80
2018-01-23T06:34:05.579Z,51.10
2018-01-23T06:35:05.443Z,53.90
2018-01-23T06:36:05.595Z,55.80
2018-01-23T06:37:05.429Z,56.60
2018-01-23T06:38:05.605Z,56.00
2018-01-23T06:39:05.441Z,56.00
2018-01-23T06:40:05.665Z,55.90
2018-01-23T06:41:05.436Z,50.10
2018-01-23T06:42:05.530Z,60.20
2018-01-23T06:43:05.439Z,52.10
2018-01-23T06:44:05.544Z,51.80
2018-01-23T06:45:05.463Z,53.70
2018-01-23T06:46:05.550Z,52.00
2018-01-23T06:47:05.458Z,53.50
2018-01-23T06:48:05.566Z,53.50
2018-01-23T06:49:05.464Z,54.60
2018-01-23T06:50:05.576Z,53.10
2018-01-23T06:51:05.478Z,53.10
2018-01-23T06:52:05.487Z,53.90
2018-01-23T06:53:05.477Z,53.70
2018-01-23T06:54:05.612Z,58.50
2018-01-23T06:55:05.483Z,57.50
2018-01-23T06:56:05.648Z,53.30
2018-01-23T06:57:05.497Z,53.20
2018-01-23T06:58:05.657Z,64.10
2018-01-23T06:59:05.490Z,52.60
2018-01-23T07:00:05.644Z,53.20
2018-01-23T07:01:05.501Z,61.70
2018-01-23T07:02:05.565Z,51.80
2018-01-23T07:03:05.515Z,52.30
2018-01-23T07:04:05.674Z,47.50
2018-01-23T07:05:05.526Z,53.50
2018-01-23T07:06:05.686Z,51.60
2018-01-23T07:07:05.519Z,52.70
2018-01-23T07:08:05.745Z,53.20
2018-01-23T07:09:05.573Z,49.20
2018-01-23T07:10:05.720Z,52.80
2018-01-23T07:11:05.595Z,47.30
2018-01-23T07:12:05.642Z,49.80
2018-01-23T07:13:05.571Z,54.10
2018-01-23T07:14:06.694Z,52.20
2018-01-23T07:15:05.554Z,48.10
2018-01-23T07:16:05.572Z,48.00
2018-01-23T07:17:05.597Z,48.00
2018-01-23T07:18:05.696Z,50.90
2018-01-23T07:19:05.570Z,50.00
2018-01-23T07:20:05.580Z,47.80
2018-01-23T07:21:05.588Z,46.10
2018-01-23T07:22:05.591Z,47.90
2018-01-23T07:23:05.574Z,46.50
2018-01-23T07:24:05.730Z,50.70
2018-01-23T07:25:05.590Z,45.60
2018-01-23T07:26:05.723Z,48.30
2018-01-23T07:27:05.616Z,45.90
2018-01-23T07:28:05.754Z,54.20
2018-01-23T07:29:05.619Z,46.20
2018-01-23T07:30:05.605Z,44.50
2018-01-23T07:31:05.675Z,49.20
2018-01-23T07:32:05.622Z,45.00
2018-01-23T07:33:05.678Z,48.10
2018-01-23T07:34:05.605Z,48.70
2018-01-23T07:35:05.685Z,47.20
2018-01-23T07:36:05.624Z,44.40
2018-01-23T07:37:05.650Z,47.40
2018-01-23T07:38:05.627Z,49.50
2018-01-23T07:39:05.816Z,44.20
2018-01-23T07:40:06.438Z,46.20
2018-01-23T07:41:05.661Z,51.20
2018-01-23T07:42:05.743Z,41.20
2018-01-23T07:43:05.634Z,43.10
2018-01-23T07:44:05.744Z,48.40
2018-01-23T07:45:05.646Z,47.80
2018-01-23T07:46:05.650Z,44.70
2018-01-23T07:47:05.649Z,45.30
2018-01-23T07:48:05.671Z,40.20
2018-01-23T07:49:05.669Z,43.40
2018-01-23T07:50:05.698Z,42.80
2018-01-23T07:51:05.677Z,53.80
2018-01-23T07:52:05.699Z,40.40
2018-01-23T07:53:05.681Z,49.70
2018-01-23T07:54:05.712Z,44.10
2018-01-23T07:55:05.699Z,41.50
2018-01-23T07:56:05.720Z,37.20
2018-01-23T07:57:05.693Z,45.90
2018-01-23T07:58:05.731Z,42.60
2018-01-23T07:59:05.713Z,43.20
2018-01-23T08:00:05.745Z,44.30
2018-01-23T08:01:05.767Z,42.90
2018-01-23T08:02:05.766Z,43.10
2018-01-23T08:03:05.782Z,41.40
2018-01-23T08:04:05.796Z,38.80
2018-01-23T08:05:05.767Z,40.20
2018-01-23T08:06:05.766Z,49.70
2018-01-23T08:07:05.800Z,38.10
2018-01-23T08:08:05.759Z,47.20
2018-01-23T08:09:05.831Z,42.50
2018-01-23T08:10:05.749Z,37.30
2018-01-23T08:11:06.865Z,40.60
2018-01-23T08:12:05.740Z,45.20
2018-01-23T08:13:05.853Z,43.70
2018-01-23T08:14:05.755Z,49.50
2018-01-23T08:15:05.869Z,45.40
2018-01-23T08:16:05.763Z,44.00
2018-01-23T08:17:05.883Z,46.50
2018-01-23T08:18:05.756Z,38.00
2018-01-23T08:19:05.788Z,37.50
2018-01-23T08:20:05.789Z,40.00
2018-01-23T08:21:05.793Z,41.30
2018-01-23T08:22:05.772Z,44.40
2018-01-23T08:23:11.535Z,38.50
2018-01-23T08:24:05.824Z,35.90
2018-01-23T08:25:05.821Z,38.80
